sensor_id;sensor_type;location;lat;lon;timestamp;P1;durP1;ratioP1;P2;durP2;ratioP2
14052;SDS011;7101;51.600;7.310;2022-10-03T00:04:36;17.40;;;5.22;;
14052;SDS011;7101;51.600;7.310;2022-10-03T00:07:28;13.77;;;4.25;;
14052;SDS011;7101;51.600;7.310;2022-10-03T00:10:12;26.17;;;5.85;;
14052;SDS011;7101;51.600;7.310;2022-10-03T00:12:49;19.67;;;5.57;;
14052;SDS011;7101;51.600;7.310;2022-10-03T00:15:30;17.23;;;5.38;;
14052;SDS011;7101;51.600;7.310;2022-10-03T00:18:08;16.17;;;5.72;;
14052;SDS011;7101;51.600;7.310;2022-10-03T00:20:50;16.60;;;5.47;;
14052;SDS011;7101;51.600;7.310;2022-10-03T00:23:34;21.90;;;5.90;;
14052;SDS011;7101;51.600;7.310;2022-10-03T00:26:08;23.05;;;5.68;;
14052;SDS011;7101;51.600;7.310;2022-10-03T00:29:07;18.65;;;5.70;;
14052;SDS011;7101;51.600;7.310;2022-10-03T00:31:55;19.73;;;5.65;;
14052;SDS011;7101;51.600;7.310;2022-10-03T00:34:33;19.23;;;5.50;;
14052;SDS011;7101;51.600;7.310;2022-10-03T00:37:15;18.25;;;5.93;;
14052;SDS011;7101;51.600;7.310;2022-10-03T00:40:05;20.08;;;5.93;;
14052;SDS011;7101;51.600;7.310;2022-10-03T00:46:20;15.40;;;5.57;;
14052;SDS011;7101;51.600;7.310;2022-10-03T00:52:14;20.83;;;6.03;;
14052;SDS011;7101;51.600;7.310;2022-10-03T00:54:57;20.90;;;6.60;;
14052;SDS011;7101;51.600;7.310;2022-10-03T00:57:40;25.52;;;7.18;;
14052;SDS011;7101;51.600;7.310;2022-10-03T01:00:26;20.25;;;7.05;;
14052;SDS011;7101;51.600;7.310;2022-10-03T01:06:00;25.35;;;8.27;;
14052;SDS011;7101;51.600;7.310;2022-10-03T01:11:33;20.02;;;7.70;;
14052;SDS011;7101;51.600;7.310;2022-10-03T01:14:14;20.98;;;7.13;;
14052;SDS011;7101;51.600;7.310;2022-10-03T01:16:59;16.15;;;7.22;;
14052;SDS011;7101;51.600;7.310;2022-10-03T01:19:47;19.77;;;7.55;;
14052;SDS011;7101;51.600;7.310;2022-10-03T01:22:47;18.02;;;6.53;;
14052;SDS011;7101;51.600;7.310;2022-10-03T01:25:29;18.50;;;7.13;;
14052;SDS011;7101;51.600;7.310;2022-10-03T01:28:14;18.35;;;7.00;;
14052;SDS011;7101;51.600;7.310;2022-10-03T01:31:06;18.80;;;7.18;;
14052;SDS011;7101;51.600;7.310;2022-10-03T01:33:36;24.75;;;7.32;;
14052;SDS011;7101;51.600;7.310;2022-10-03T01:36:08;24.15;;;7.05;;
14052;SDS011;7101;51.600;7.310;2022-10-03T01:38:41;21.70;;;6.70;;
14052;SDS011;7101;51.600;7.310;2022-10-03T01:41:18;21.52;;;7.03;;
14052;SDS011;7101;51.600;7.310;2022-10-03T01:43:54;25.35;;;7.15;;
14052;SDS011;7101;51.600;7.310;2022-10-03T01:46:32;20.13;;;6.95;;
14052;SDS011;7101;51.600;7.310;2022-10-03T01:49:05;16.15;;;5.88;;
14052;SDS011;7101;51.600;7.310;2022-10-03T01:51:40;27.90;;;5.95;;
14052;SDS011;7101;51.600;7.310;2022-10-03T01:54:15;16.77;;;6.10;;
14052;SDS011;7101;51.600;7.310;2022-10-03T01:56:51;22.27;;;6.07;;
14052;SDS011;7101;51.600;7.310;2022-10-03T01:59:28;23.23;;;6.38;;
14052;SDS011;7101;51.600;7.310;2022-10-03T02:02:09;18.92;;;6.03;;
14052;SDS011;7101;51.600;7.310;2022-10-03T02:04:44;19.02;;;5.88;;
14052;SDS011;7101;51.600;7.310;2022-10-03T02:07:19;25.35;;;6.43;;
14052;SDS011;7101;51.600;7.310;2022-10-03T02:09:58;20.60;;;6.47;;
14052;SDS011;7101;51.600;7.310;2022-10-03T02:12:31;22.15;;;6.22;;
14052;SDS011;7101;51.600;7.310;2022-10-03T02:15:10;28.10;;;7.40;;
14052;SDS011;7101;51.600;7.310;2022-10-03T02:17:45;19.45;;;5.90;;
14052;SDS011;7101;51.600;7.310;2022-10-03T02:20:21;13.63;;;5.63;;
14052;SDS011;7101;51.600;7.310;2022-10-03T02:22:54;18.45;;;6.43;;
14052;SDS011;7101;51.600;7.310;2022-10-03T02:25:24;19.23;;;5.88;;
14052;SDS011;7101;51.600;7.310;2022-10-03T02:34:01;15.45;;;5.65;;
14052;SDS011;7101;51.600;7.310;2022-10-03T02:36:56;14.25;;;5.72;;
14052;SDS011;7101;51.600;7.310;2022-10-03T02:39:58;16.17;;;6.10;;
14052;SDS011;7101;51.600;7.310;2022-10-03T02:43:17;18.35;;;6.68;;
14052;SDS011;7101;51.600;7.310;2022-10-03T02:46:18;18.73;;;6.07;;
14052;SDS011;7101;51.600;7.310;2022-10-03T02:58:20;23.98;;;6.00;;
14052;SDS011;7101;51.600;7.310;2022-10-03T03:01:26;24.48;;;5.90;;
14052;SDS011;7101;51.600;7.310;2022-10-03T03:07:18;17.95;;;5.60;;
14052;SDS011;7101;51.600;7.310;2022-10-03T03:10:09;21.65;;;6.68;;
14052;SDS011;7101;51.600;7.310;2022-10-03T03:19:13;19.98;;;6.72;;
14052;SDS011;7101;51.600;7.310;2022-10-03T03:21:52;18.80;;;6.32;;
14052;SDS011;7101;51.600;7.310;2022-10-03T03:24:40;20.90;;;6.88;;
14052;SDS011;7101;51.600;7.310;2022-10-03T03:27:29;19.95;;;6.35;;
14052;SDS011;7101;51.600;7.310;2022-10-03T03:30:04;19.48;;;7.00;;
14052;SDS011;7101;51.600;7.310;2022-10-03T03:32:41;21.20;;;7.13;;
14052;SDS011;7101;51.600;7.310;2022-10-03T03:35:23;18.48;;;6.18;;
14052;SDS011;7101;51.600;7.310;2022-10-03T03:38:01;19.02;;;6.57;;
14052;SDS011;7101;51.600;7.310;2022-10-03T03:40:41;24.58;;;6.97;;
14052;SDS011;7101;51.600;7.310;2022-10-03T03:43:35;18.38;;;7.07;;
14052;SDS011;7101;51.600;7.310;2022-10-03T03:46:13;22.52;;;6.95;;
14052;SDS011;7101;51.600;7.310;2022-10-03T03:48:51;18.33;;;7.22;;
14052;SDS011;7101;51.600;7.310;2022-10-03T03:51:34;21.35;;;7.90;;
14052;SDS011;7101;51.600;7.310;2022-10-03T03:54:22;26.20;;;7.50;;
14052;SDS011;7101;51.600;7.310;2022-10-03T04:00:21;25.30;;;8.10;;
14052;SDS011;7101;51.600;7.310;2022-10-03T04:03:02;19.40;;;7.72;;
14052;SDS011;7101;51.600;7.310;2022-10-03T04:05:46;27.85;;;8.85;;
14052;SDS011;7101;51.600;7.310;2022-10-03T04:08:33;27.70;;;8.00;;
14052;SDS011;7101;51.600;7.310;2022-10-03T04:11:26;21.25;;;7.90;;
14052;SDS011;7101;51.600;7.310;2022-10-03T04:14:19;22.33;;;7.53;;
14052;SDS011;7101;51.600;7.310;2022-10-03T04:17:05;27.77;;;7.90;;
14052;SDS011;7101;51.600;7.310;2022-10-03T04:20:10;25.65;;;7.40;;
14052;SDS011;7101;51.600;7.310;2022-10-03T04:25:51;22.67;;;7.22;;
14052;SDS011;7101;51.600;7.310;2022-10-03T04:31:22;18.80;;;7.32;;
14052;SDS011;7101;51.600;7.310;2022-10-03T04:34:14;30.52;;;8.02;;
14052;SDS011;7101;51.600;7.310;2022-10-03T04:37:05;16.38;;;7.45;;
14052;SDS011;7101;51.600;7.310;2022-10-03T04:39:42;18.30;;;7.57;;
14052;SDS011;7101;51.600;7.310;2022-10-03T04:42:19;20.38;;;7.60;;
14052;SDS011;7101;51.600;7.310;2022-10-03T04:45:03;19.40;;;7.18;;
14052;SDS011;7101;51.600;7.310;2022-10-03T04:47:41;19.73;;;7.45;;
14052;SDS011;7101;51.600;7.310;2022-10-03T04:50:17;16.17;;;7.72;;
14052;SDS011;7101;51.600;7.310;2022-10-03T04:52:56;26.73;;;8.70;;
14052;SDS011;7101;51.600;7.310;2022-10-03T04:55:37;22.38;;;8.43;;
14052;SDS011;7101;51.600;7.310;2022-10-03T04:58:13;21.30;;;7.65;;
14052;SDS011;7101;51.600;7.310;2022-10-03T05:00:56;18.60;;;7.90;;
14052;SDS011;7101;51.600;7.310;2022-10-03T05:03:32;22.77;;;8.00;;
14052;SDS011;7101;51.600;7.310;2022-10-03T05:06:09;17.65;;;7.70;;
14052;SDS011;7101;51.600;7.310;2022-10-03T05:08:56;24.73;;;7.55;;
14052;SDS011;7101;51.600;7.310;2022-10-03T05:11:36;25.48;;;7.80;;
14052;SDS011;7101;51.600;7.310;2022-10-03T05:14:19;28.13;;;8.15;;
14052;SDS011;7101;51.600;7.310;2022-10-03T05:16:54;26.17;;;7.50;;
14052;SDS011;7101;51.600;7.310;2022-10-03T05:19:39;31.73;;;8.70;;
14052;SDS011;7101;51.600;7.310;2022-10-03T05:22:22;19.92;;;7.13;;
14052;SDS011;7101;51.600;7.310;2022-10-03T05:25:08;23.90;;;8.38;;
14052;SDS011;7101;51.600;7.310;2022-10-03T05:27:46;30.98;;;8.02;;
14052;SDS011;7101;51.600;7.310;2022-10-03T05:30:21;23.85;;;8.38;;
14052;SDS011;7101;51.600;7.310;2022-10-03T05:33:02;23.45;;;8.00;;
14052;SDS011;7101;51.600;7.310;2022-10-03T05:35:40;35.03;;;8.93;;
14052;SDS011;7101;51.600;7.310;2022-10-03T05:41:17;20.42;;;8.52;;
14052;SDS011;7101;51.600;7.310;2022-10-03T05:43:51;20.80;;;8.60;;
14052;SDS011;7101;51.600;7.310;2022-10-03T05:52:15;25.38;;;9.55;;
14052;SDS011;7101;51.600;7.310;2022-10-03T05:55:00;27.17;;;9.77;;
14052;SDS011;7101;51.600;7.310;2022-10-03T05:57:47;23.45;;;8.23;;
14052;SDS011;7101;51.600;7.310;2022-10-03T06:00:29;26.65;;;9.35;;
14052;SDS011;7101;51.600;7.310;2022-10-03T06:06:14;29.83;;;8.93;;
14052;SDS011;7101;51.600;7.310;2022-10-03T06:09:01;22.85;;;8.65;;
14052;SDS011;7101;51.600;7.310;2022-10-03T06:11:53;25.00;;;9.23;;
14052;SDS011;7101;51.600;7.310;2022-10-03T06:14:35;23.70;;;9.40;;
14052;SDS011;7101;51.600;7.310;2022-10-03T06:20:26;24.88;;;9.68;;
14052;SDS011;7101;51.600;7.310;2022-10-03T06:29:33;26.30;;;10.27;;
14052;SDS011;7101;51.600;7.310;2022-10-03T06:32:41;26.15;;;9.95;;
14052;SDS011;7101;51.600;7.310;2022-10-03T06:38:43;23.08;;;11.00;;
14052;SDS011;7101;51.600;7.310;2022-10-03T06:44:34;29.50;;;11.15;;
14052;SDS011;7101;51.600;7.310;2022-10-03T06:47:26;30.33;;;11.02;;
14052;SDS011;7101;51.600;7.310;2022-10-03T06:50:25;27.42;;;11.73;;
14052;SDS011;7101;51.600;7.310;2022-10-03T06:53:22;29.02;;;11.35;;
14052;SDS011;7101;51.600;7.310;2022-10-03T06:56:29;25.90;;;10.38;;
14052;SDS011;7101;51.600;7.310;2022-10-03T06:59:19;21.10;;;10.18;;
14052;SDS011;7101;51.600;7.310;2022-10-03T07:02:19;25.48;;;9.80;;
14052;SDS011;7101;51.600;7.310;2022-10-03T07:05:19;17.90;;;8.02;;
14052;SDS011;7101;51.600;7.310;2022-10-03T07:14:43;18.63;;;8.20;;
14052;SDS011;7101;51.600;7.310;2022-10-03T07:17:39;20.30;;;8.02;;
14052;SDS011;7101;51.600;7.310;2022-10-03T07:23:52;16.92;;;7.57;;
14052;SDS011;7101;51.600;7.310;2022-10-03T07:29:52;15.75;;;7.00;;
14052;SDS011;7101;51.600;7.310;2022-10-03T07:32:31;16.35;;;7.07;;
14052;SDS011;7101;51.600;7.310;2022-10-03T07:35:32;15.38;;;6.45;;
14052;SDS011;7101;51.600;7.310;2022-10-03T07:38:37;12.27;;;6.28;;
14052;SDS011;7101;51.600;7.310;2022-10-03T07:50:19;13.90;;;5.85;;
14052;SDS011;7101;51.600;7.310;2022-10-03T07:53:26;14.73;;;6.22;;
14052;SDS011;7101;51.600;7.310;2022-10-03T07:56:26;17.52;;;6.05;;
14052;SDS011;7101;51.600;7.310;2022-10-03T07:59:24;16.10;;;6.22;;
14052;SDS011;7101;51.600;7.310;2022-10-03T08:02:17;16.42;;;6.38;;
14052;SDS011;7101;51.600;7.310;2022-10-03T08:05:17;16.85;;;6.50;;
14052;SDS011;7101;51.600;7.310;2022-10-03T08:07:58;15.85;;;6.38;;
14052;SDS011;7101;51.600;7.310;2022-10-03T08:13:40;15.70;;;6.32;;
14052;SDS011;7101;51.600;7.310;2022-10-03T08:16:22;14.52;;;6.30;;
14052;SDS011;7101;51.600;7.310;2022-10-03T08:19:12;13.32;;;6.35;;
14052;SDS011;7101;51.600;7.310;2022-10-03T08:21:52;16.63;;;6.53;;
14052;SDS011;7101;51.600;7.310;2022-10-03T08:24:38;13.32;;;6.57;;
14052;SDS011;7101;51.600;7.310;2022-10-03T08:27:28;13.88;;;6.35;;
14052;SDS011;7101;51.600;7.310;2022-10-03T08:30:18;13.38;;;6.22;;
14052;SDS011;7101;51.600;7.310;2022-10-03T08:33:00;14.50;;;6.53;;
14052;SDS011;7101;51.600;7.310;2022-10-03T08:48:27;16.35;;;6.22;;
14052;SDS011;7101;51.600;7.310;2022-10-03T08:54:33;16.40;;;6.55;;
14052;SDS011;7101;51.600;7.310;2022-10-03T09:00:32;17.90;;;6.15;;
14052;SDS011;7101;51.600;7.310;2022-10-03T09:09:30;16.67;;;5.53;;
14052;SDS011;7101;51.600;7.310;2022-10-03T09:12:36;12.52;;;4.82;;
14052;SDS011;7101;51.600;7.310;2022-10-03T09:18:57;15.70;;;5.70;;
14052;SDS011;7101;51.600;7.310;2022-10-03T09:21:54;14.10;;;5.55;;
14052;SDS011;7101;51.600;7.310;2022-10-03T09:30:53;22.23;;;5.22;;
14052;SDS011;7101;51.600;7.310;2022-10-03T09:36:52;14.93;;;5.28;;
14052;SDS011;7101;51.600;7.310;2022-10-03T09:43:35;10.68;;;4.80;;
14052;SDS011;7101;51.600;7.310;2022-10-03T09:49:40;15.30;;;6.20;;
14052;SDS011;7101;51.600;7.310;2022-10-03T09:52:30;13.98;;;5.80;;
14052;SDS011;7101;51.600;7.310;2022-10-03T10:01:12;10.05;;;4.07;;
14052;SDS011;7101;51.600;7.310;2022-10-03T10:13:26;14.63;;;3.88;;
14052;SDS011;7101;51.600;7.310;2022-10-03T10:16:20;15.20;;;3.40;;
14052;SDS011;7101;51.600;7.310;2022-10-03T10:22:18;11.23;;;3.40;;
14052;SDS011;7101;51.600;7.310;2022-10-03T10:25:23;14.88;;;3.55;;
14052;SDS011;7101;51.600;7.310;2022-10-03T10:28:33;8.70;;;3.05;;
14052;SDS011;7101;51.600;7.310;2022-10-03T10:37:55;14.13;;;3.33;;
14052;SDS011;7101;51.600;7.310;2022-10-03T10:43:47;8.18;;;2.00;;
14052;SDS011;7101;51.600;7.310;2022-10-03T10:56:35;6.82;;;2.03;;
14052;SDS011;7101;51.600;7.310;2022-10-03T11:03:10;7.85;;;2.08;;
14052;SDS011;7101;51.600;7.310;2022-10-03T11:37:13;7.97;;;2.83;;
14052;SDS011;7101;51.600;7.310;2022-10-03T11:39:52;7.43;;;2.08;;
14052;SDS011;7101;51.600;7.310;2022-10-03T11:42:33;6.53;;;1.60;;
14052;SDS011;7101;51.600;7.310;2022-10-03T11:45:14;8.85;;;2.33;;
14052;SDS011;7101;51.600;7.310;2022-10-03T11:47:58;7.65;;;1.92;;
14052;SDS011;7101;51.600;7.310;2022-10-03T11:50:45;7.18;;;1.38;;
14052;SDS011;7101;51.600;7.310;2022-10-03T11:53:20;6.28;;;1.60;;
14052;SDS011;7101;51.600;7.310;2022-10-03T12:02:04;6.35;;;1.70;;
14052;SDS011;7101;51.600;7.310;2022-10-03T12:04:43;6.05;;;1.70;;
14052;SDS011;7101;51.600;7.310;2022-10-03T12:07:36;8.13;;;1.70;;
14052;SDS011;7101;51.600;7.310;2022-10-03T12:10:32;5.97;;;2.38;;
14052;SDS011;7101;51.600;7.310;2022-10-03T12:13:07;8.90;;;2.03;;
14052;SDS011;7101;51.600;7.310;2022-10-03T12:15:40;7.32;;;2.20;;
14052;SDS011;7101;51.600;7.310;2022-10-03T12:18:12;9.63;;;5.78;;
14052;SDS011;7101;51.600;7.310;2022-10-03T12:23:43;4.70;;;1.20;;
14052;SDS011;7101;51.600;7.310;2022-10-03T12:26:36;3.75;;;1.23;;
14052;SDS011;7101;51.600;7.310;2022-10-03T12:29:14;6.30;;;1.33;;
14052;SDS011;7101;51.600;7.310;2022-10-03T12:31:45;6.65;;;1.40;;
14052;SDS011;7101;51.600;7.310;2022-10-03T12:34:26;6.40;;;1.45;;
14052;SDS011;7101;51.600;7.310;2022-10-03T12:37:07;4.68;;;1.45;;
14052;SDS011;7101;51.600;7.310;2022-10-03T12:39:54;5.72;;;1.60;;
14052;SDS011;7101;51.600;7.310;2022-10-03T12:42:30;5.30;;;1.60;;
14052;SDS011;7101;51.600;7.310;2022-10-03T12:45:03;7.75;;;1.60;;
14052;SDS011;7101;51.600;7.310;2022-10-03T12:47:44;6.00;;;1.52;;
14052;SDS011;7101;51.600;7.310;2022-10-03T12:50:28;10.73;;;1.88;;
14052;SDS011;7101;51.600;7.310;2022-10-03T12:53:24;5.05;;;1.40;;
14052;SDS011;7101;51.600;7.310;2022-10-03T12:56:10;5.03;;;1.63;;
14052;SDS011;7101;51.600;7.310;2022-10-03T12:58:53;6.18;;;1.70;;
14052;SDS011;7101;51.600;7.310;2022-10-03T13:01:33;6.43;;;1.60;;
14052;SDS011;7101;51.600;7.310;2022-10-03T13:04:13;5.00;;;1.45;;
14052;SDS011;7101;51.600;7.310;2022-10-03T13:06:51;8.20;;;1.33;;
14052;SDS011;7101;51.600;7.310;2022-10-03T13:12:33;4.65;;;1.35;;
14052;SDS011;7101;51.600;7.310;2022-10-03T13:18:11;4.50;;;1.40;;
14052;SDS011;7101;51.600;7.310;2022-10-03T13:21:08;6.20;;;1.67;;
14052;SDS011;7101;51.600;7.310;2022-10-03T13:23:43;6.15;;;1.75;;
14052;SDS011;7101;51.600;7.310;2022-10-03T13:26:15;9.13;;;1.67;;
14052;SDS011;7101;51.600;7.310;2022-10-03T13:32:10;7.43;;;1.40;;
14052;SDS011;7101;51.600;7.310;2022-10-03T13:34:56;5.53;;;1.70;;
14052;SDS011;7101;51.600;7.310;2022-10-03T13:37:52;4.78;;;1.38;;
14052;SDS011;7101;51.600;7.310;2022-10-03T13:40:33;4.80;;;1.38;;
14052;SDS011;7101;51.600;7.310;2022-10-03T13:43:07;7.00;;;1.88;;
14052;SDS011;7101;51.600;7.310;2022-10-03T13:45:38;3.28;;;1.30;;
14052;SDS011;7101;51.600;7.310;2022-10-03T13:48:11;6.18;;;1.83;;
14052;SDS011;7101;51.600;7.310;2022-10-03T13:50:41;6.75;;;1.55;;
14052;SDS011;7101;51.600;7.310;2022-10-03T13:53:15;3.65;;;1.40;;
14052;SDS011;7101;51.600;7.310;2022-10-03T13:56:06;3.17;;;1.15;;
14052;SDS011;7101;51.600;7.310;2022-10-03T13:58:40;11.75;;;1.77;;
14052;SDS011;7101;51.600;7.310;2022-10-03T14:07:16;7.32;;;1.30;;
14052;SDS011;7101;51.600;7.310;2022-10-03T14:12:57;6.85;;;1.58;;
14052;SDS011;7101;51.600;7.310;2022-10-03T14:15:45;4.28;;;1.30;;
14052;SDS011;7101;51.600;7.310;2022-10-03T14:18:22;3.45;;;1.13;;
14052;SDS011;7101;51.600;7.310;2022-10-03T14:24:04;5.78;;;1.77;;
14052;SDS011;7101;51.600;7.310;2022-10-03T14:26:41;4.93;;;1.48;;
14052;SDS011;7101;51.600;7.310;2022-10-03T14:29:15;6.70;;;1.83;;
14052;SDS011;7101;51.600;7.310;2022-10-03T14:31:51;5.22;;;1.73;;
14052;SDS011;7101;51.600;7.310;2022-10-03T14:34:33;5.85;;;1.55;;
14052;SDS011;7101;51.600;7.310;2022-10-03T14:37:09;5.88;;;1.50;;
14052;SDS011;7101;51.600;7.310;2022-10-03T14:39:46;6.20;;;1.88;;
14052;SDS011;7101;51.600;7.310;2022-10-03T14:45:20;5.75;;;1.52;;
14052;SDS011;7101;51.600;7.310;2022-10-03T14:47:51;3.28;;;1.40;;
14052;SDS011;7101;51.600;7.310;2022-10-03T14:50:21;4.78;;;1.48;;
14052;SDS011;7101;51.600;7.310;2022-10-03T14:52:51;5.03;;;1.30;;
14052;SDS011;7101;51.600;7.310;2022-10-03T14:55:29;6.47;;;1.38;;
14052;SDS011;7101;51.600;7.310;2022-10-03T14:57:58;4.78;;;1.20;;
14052;SDS011;7101;51.600;7.310;2022-10-03T15:00:37;5.35;;;1.58;;
14052;SDS011;7101;51.600;7.310;2022-10-03T15:03:18;4.53;;;1.60;;
14052;SDS011;7101;51.600;7.310;2022-10-03T15:05:58;8.40;;;1.73;;
14052;SDS011;7101;51.600;7.310;2022-10-03T15:08:29;5.45;;;1.70;;
14052;SDS011;7101;51.600;7.310;2022-10-03T15:11:03;6.60;;;1.42;;
14052;SDS011;7101;51.600;7.310;2022-10-03T15:13:32;5.80;;;1.83;;
14052;SDS011;7101;51.600;7.310;2022-10-03T15:16:03;6.70;;;1.65;;
14052;SDS011;7101;51.600;7.310;2022-10-03T15:18:30;7.95;;;1.67;;
14052;SDS011;7101;51.600;7.310;2022-10-03T15:20:58;5.18;;;1.40;;
14052;SDS011;7101;51.600;7.310;2022-10-03T15:23:26;6.35;;;1.52;;
14052;SDS011;7101;51.600;7.310;2022-10-03T15:25:58;5.72;;;1.45;;
14052;SDS011;7101;51.600;7.310;2022-10-03T15:28:27;5.72;;;1.73;;
14052;SDS011;7101;51.600;7.310;2022-10-03T15:31:06;9.20;;;2.15;;
14052;SDS011;7101;51.600;7.310;2022-10-03T15:33:36;6.38;;;1.60;;
14052;SDS011;7101;51.600;7.310;2022-10-03T15:36:08;4.88;;;1.50;;
14052;SDS011;7101;51.600;7.310;2022-10-03T15:38:40;4.55;;;1.30;;
14052;SDS011;7101;51.600;7.310;2022-10-03T15:41:11;4.90;;;3.80;;
14052;SDS011;7101;51.600;7.310;2022-10-03T15:43:43;4.88;;;1.58;;
14052;SDS011;7101;51.600;7.310;2022-10-03T15:46:25;5.68;;;1.45;;
14052;SDS011;7101;51.600;7.310;2022-10-03T15:48:57;8.07;;;1.63;;
14052;SDS011;7101;51.600;7.310;2022-10-03T15:51:26;5.00;;;1.73;;
14052;SDS011;7101;51.600;7.310;2022-10-03T15:53:57;5.10;;;1.40;;
14052;SDS011;7101;51.600;7.310;2022-10-03T15:56:28;10.15;;;1.58;;
14052;SDS011;7101;51.600;7.310;2022-10-03T15:59:00;3.40;;;1.13;;
14052;SDS011;7101;51.600;7.310;2022-10-03T16:01:31;4.97;;;1.85;;
14052;SDS011;7101;51.600;7.310;2022-10-03T16:04:02;5.63;;;1.73;;
14052;SDS011;7101;51.600;7.310;2022-10-03T16:06:32;5.57;;;1.60;;
14052;SDS011;7101;51.600;7.310;2022-10-03T16:09:12;4.65;;;1.40;;
14052;SDS011;7101;51.600;7.310;2022-10-03T16:11:50;5.43;;;1.67;;
14052;SDS011;7101;51.600;7.310;2022-10-03T16:14:26;6.85;;;1.45;;
14052;SDS011;7101;51.600;7.310;2022-10-03T16:17:00;7.00;;;1.70;;
14052;SDS011;7101;51.600;7.310;2022-10-03T16:19:35;9.65;;;1.58;;
14052;SDS011;7101;51.600;7.310;2022-10-03T16:22:06;5.38;;;1.50;;
14052;SDS011;7101;51.600;7.310;2022-10-03T16:24:42;6.22;;;1.52;;
14052;SDS011;7101;51.600;7.310;2022-10-03T16:27:23;5.50;;;1.60;;
14052;SDS011;7101;51.600;7.310;2022-10-03T16:29:56;5.90;;;1.52;;
14052;SDS011;7101;51.600;7.310;2022-10-03T16:32:37;3.00;;;1.20;;
14052;SDS011;7101;51.600;7.310;2022-10-03T16:35:20;3.72;;;1.25;;
14052;SDS011;7101;51.600;7.310;2022-10-03T16:37:55;8.98;;;1.38;;
14052;SDS011;7101;51.600;7.310;2022-10-03T16:40:22;5.90;;;1.70;;
14052;SDS011;7101;51.600;7.310;2022-10-03T16:42:51;2.58;;;1.13;;
14052;SDS011;7101;51.600;7.310;2022-10-03T16:45:25;4.00;;;1.52;;
14052;SDS011;7101;51.600;7.310;2022-10-03T16:47:55;5.30;;;1.55;;
14052;SDS011;7101;51.600;7.310;2022-10-03T16:50:42;5.47;;;1.60;;
14052;SDS011;7101;51.600;7.310;2022-10-03T16:53:14;4.55;;;1.33;;
14052;SDS011;7101;51.600;7.310;2022-10-03T16:55:43;4.72;;;1.60;;
14052;SDS011;7101;51.600;7.310;2022-10-03T16:58:17;3.50;;;1.35;;
14052;SDS011;7101;51.600;7.310;2022-10-03T17:01:02;6.65;;;1.60;;
14052;SDS011;7101;51.600;7.310;2022-10-03T17:03:34;7.57;;;2.17;;
14052;SDS011;7101;51.600;7.310;2022-10-03T17:06:05;7.78;;;2.28;;
14052;SDS011;7101;51.600;7.310;2022-10-03T17:08:41;5.05;;;1.98;;
14052;SDS011;7101;51.600;7.310;2022-10-03T17:11:14;11.05;;;2.60;;
14052;SDS011;7101;51.600;7.310;2022-10-03T17:13:45;6.30;;;2.20;;
14052;SDS011;7101;51.600;7.310;2022-10-03T17:16:18;10.57;;;3.22;;
14052;SDS011;7101;51.600;7.310;2022-10-03T17:18:58;6.45;;;3.00;;
14052;SDS011;7101;51.600;7.310;2022-10-03T17:21:33;6.93;;;3.22;;
14052;SDS011;7101;51.600;7.310;2022-10-03T17:24:07;9.82;;;3.30;;
14052;SDS011;7101;51.600;7.310;2022-10-03T17:26:38;6.00;;;3.28;;
14052;SDS011;7101;51.600;7.310;2022-10-03T17:29:09;8.27;;;2.92;;
14052;SDS011;7101;51.600;7.310;2022-10-03T17:31:45;7.32;;;2.83;;
14052;SDS011;7101;51.600;7.310;2022-10-03T17:34:15;7.13;;;2.90;;
14052;SDS011;7101;51.600;7.310;2022-10-03T17:36:48;7.78;;;3.00;;
14052;SDS011;7101;51.600;7.310;2022-10-03T17:39:32;6.55;;;2.60;;
14052;SDS011;7101;51.600;7.310;2022-10-03T17:42:06;6.07;;;2.40;;
14052;SDS011;7101;51.600;7.310;2022-10-03T17:44:44;6.38;;;2.45;;
14052;SDS011;7101;51.600;7.310;2022-10-03T17:47:25;7.07;;;2.50;;
14052;SDS011;7101;51.600;7.310;2022-10-03T17:49:59;8.05;;;2.55;;
14052;SDS011;7101;51.600;7.310;2022-10-03T17:52:31;6.85;;;2.85;;
14052;SDS011;7101;51.600;7.310;2022-10-03T17:55:04;6.80;;;2.58;;
14052;SDS011;7101;51.600;7.310;2022-10-03T17:57:35;10.50;;;3.65;;
14052;SDS011;7101;51.600;7.310;2022-10-03T18:00:07;9.55;;;3.28;;
14052;SDS011;7101;51.600;7.310;2022-10-03T18:02:48;10.73;;;3.60;;
14052;SDS011;7101;51.600;7.310;2022-10-03T18:05:22;7.85;;;4.05;;
14052;SDS011;7101;51.600;7.310;2022-10-03T18:07:53;7.78;;;3.53;;
14052;SDS011;7101;51.600;7.310;2022-10-03T18:10:23;10.13;;;4.07;;
14052;SDS011;7101;51.600;7.310;2022-10-03T18:12:54;10.00;;;4.10;;
14052;SDS011;7101;51.600;7.310;2022-10-03T18:15:34;15.02;;;3.80;;
14052;SDS011;7101;51.600;7.310;2022-10-03T18:21:12;8.82;;;4.50;;
14052;SDS011;7101;51.600;7.310;2022-10-03T18:23:48;11.18;;;5.38;;
14052;SDS011;7101;51.600;7.310;2022-10-03T18:26:30;10.07;;;5.55;;
14052;SDS011;7101;51.600;7.310;2022-10-03T18:29:04;11.18;;;6.88;;
14052;SDS011;7101;51.600;7.310;2022-10-03T18:31:42;12.13;;;6.95;;
14052;SDS011;7101;51.600;7.310;2022-10-03T18:34:16;13.15;;;7.35;;
14052;SDS011;7101;51.600;7.310;2022-10-03T18:36:47;11.63;;;7.68;;
14052;SDS011;7101;51.600;7.310;2022-10-03T18:39:17;17.08;;;8.48;;
14052;SDS011;7101;51.600;7.310;2022-10-03T18:41:47;12.75;;;7.80;;
14052;SDS011;7101;51.600;7.310;2022-10-03T18:44:17;16.23;;;8.05;;
14052;SDS011;7101;51.600;7.310;2022-10-03T18:46:48;13.90;;;8.00;;
14052;SDS011;7101;51.600;7.310;2022-10-03T18:49:21;15.35;;;8.48;;
14052;SDS011;7101;51.600;7.310;2022-10-03T18:51:54;19.38;;;8.88;;
14052;SDS011;7101;51.600;7.310;2022-10-03T18:54:28;13.85;;;8.52;;
14052;SDS011;7101;51.600;7.310;2022-10-03T18:57:07;13.00;;;8.70;;
14052;SDS011;7101;51.600;7.310;2022-10-03T18:59:42;13.95;;;8.85;;
14052;SDS011;7101;51.600;7.310;2022-10-03T19:02:15;13.48;;;8.00;;
14052;SDS011;7101;51.600;7.310;2022-10-03T19:04:50;23.25;;;11.65;;
14052;SDS011;7101;51.600;7.310;2022-10-03T19:07:23;46.08;;;32.85;;
14052;SDS011;7101;51.600;7.310;2022-10-03T19:12:46;47.88;;;36.28;;
14052;SDS011;7101;51.600;7.310;2022-10-03T19:15:20;48.85;;;36.45;;
14052;SDS011;7101;51.600;7.310;2022-10-03T19:18:01;40.72;;;28.13;;
14052;SDS011;7101;51.600;7.310;2022-10-03T19:20:35;36.25;;;26.00;;
14052;SDS011;7101;51.600;7.310;2022-10-03T19:23:09;34.80;;;25.02;;
14052;SDS011;7101;51.600;7.310;2022-10-03T19:25:39;32.60;;;23.23;;
14052;SDS011;7101;51.600;7.310;2022-10-03T19:28:12;32.05;;;22.00;;
14052;SDS011;7101;51.600;7.310;2022-10-03T19:30:44;31.15;;;21.65;;
14052;SDS011;7101;51.600;7.310;2022-10-03T19:33:21;30.70;;;20.85;;
14052;SDS011;7101;51.600;7.310;2022-10-03T19:35:53;29.13;;;20.85;;
14052;SDS011;7101;51.600;7.310;2022-10-03T19:38:24;28.70;;;18.55;;
14052;SDS011;7101;51.600;7.310;2022-10-03T19:40:58;29.75;;;16.30;;
14052;SDS011;7101;51.600;7.310;2022-10-03T19:43:40;27.38;;;16.67;;
14052;SDS011;7101;51.600;7.310;2022-10-03T19:46:17;24.92;;;17.90;;
14052;SDS011;7101;51.600;7.310;2022-10-03T19:49:08;22.73;;;15.48;;
14052;SDS011;7101;51.600;7.310;2022-10-03T19:52:08;27.08;;;16.20;;
14052;SDS011;7101;51.600;7.310;2022-10-03T19:54:44;26.23;;;17.02;;
14052;SDS011;7101;51.600;7.310;2022-10-03T19:57:16;23.15;;;16.10;;
14052;SDS011;7101;51.600;7.310;2022-10-03T19:59:47;23.27;;;16.17;;
14052;SDS011;7101;51.600;7.310;2022-10-03T20:02:19;24.30;;;16.52;;
14052;SDS011;7101;51.600;7.310;2022-10-03T20:04:49;22.80;;;15.70;;
14052;SDS011;7101;51.600;7.310;2022-10-03T20:07:18;27.25;;;15.20;;
14052;SDS011;7101;51.600;7.310;2022-10-03T20:10:26;25.80;;;15.45;;
14052;SDS011;7101;51.600;7.310;2022-10-03T20:12:59;20.98;;;14.88;;
14052;SDS011;7101;51.600;7.310;2022-10-03T20:15:32;18.88;;;14.70;;
14052;SDS011;7101;51.600;7.310;2022-10-03T20:18:06;18.80;;;13.43;;
14052;SDS011;7101;51.600;7.310;2022-10-03T20:20:39;18.90;;;15.07;;
14052;SDS011;7101;51.600;7.310;2022-10-03T20:23:08;21.60;;;14.98;;
14052;SDS011;7101;51.600;7.310;2022-10-03T20:25:42;21.15;;;14.75;;
14052;SDS011;7101;51.600;7.310;2022-10-03T20:28:16;22.30;;;14.80;;
14052;SDS011;7101;51.600;7.310;2022-10-03T20:30:46;22.05;;;14.15;;